createdAt,value
2018-07-21T00:02:15.759Z,70.12
2018-07-21T00:04:46.995Z,70.45
2018-07-21T00:07:17.747Z,71.82
2018-07-21T00:09:48.881Z,73.26
2018-07-21T00:12:20.261Z,74.39
2018-07-21T00:14:51.888Z,73.45
2018-07-21T00:17:23.098Z,72.63
2018-07-21T00:19:54.502Z,71.74
2018-07-21T00:22:25.895Z,71.03
2018-07-21T00:24:57.115Z,70.50
2018-07-21T00:27:28.390Z,69.56
2018-07-21T00:29:59.667Z,70.19
2018-07-21T00:32:30.495Z,70.81
2018-07-21T00:35:01.712Z,70.93
2018-07-21T00:37:33.262Z,70.51
2018-07-21T00:40:05.400Z,71.34
2018-07-21T00:42:36.690Z,71.73
2018-07-21T00:45:08.230Z,71.87
2018-07-21T00:47:39.755Z,69.86
2018-07-21T00:50:11.368Z,69.46
2018-07-21T00:52:42.851Z,69.18
2018-07-21T00:55:17.283Z,69.90
2018-07-21T00:57:48.578Z,69.60
2018-07-21T01:00:19.974Z,68.74
2018-07-21T01:02:51.235Z,69.71
2018-07-21T01:05:22.877Z,70.25
2018-07-21T01:07:54.402Z,70.64
2018-07-21T01:10:25.718Z,72.06
2018-07-21T01:12:57.466Z,72.05
2018-07-21T01:15:29.956Z,71.67
2018-07-21T01:18:01.263Z,71.27
2018-07-21T01:20:32.674Z,71.73
2018-07-21T01:23:04.047Z,72.00
2018-07-21T01:25:35.304Z,72.09
2018-07-21T01:28:06.116Z,72.65
2018-07-21T01:30:37.191Z,73.98
2018-07-21T01:33:15.002Z,74.88
2018-07-21T01:35:46.246Z,74.62
2018-07-21T01:38:17.515Z,74.25
2018-07-21T01:40:48.722Z,74.04
2018-07-21T01:43:20.123Z,73.79
2018-07-21T01:45:51.394Z,75.35
2018-07-21T01:48:23.760Z,76.63
2018-07-21T01:50:55.594Z,75.59
2018-07-21T01:53:26.388Z,76.06
2018-07-21T01:55:57.449Z,75.67
2018-07-21T01:58:28.712Z,74.72
2018-07-21T02:00:59.953Z,75.55
2018-07-21T02:03:31.326Z,74.70
2018-07-21T02:06:02.626Z,75.19
2018-07-21T02:08:33.811Z,74.84
2018-07-21T02:11:05.431Z,75.36
2018-07-21T02:13:36.420Z,75.92
2018-07-21T02:16:07.826Z,76.85
2018-07-21T02:18:39.225Z,77.87
2018-07-21T02:21:10.809Z,77.76
2018-07-21T02:23:42.122Z,79.83
2018-07-21T02:26:13.522Z,80.67
2018-07-21T02:28:44.917Z,80.80
2018-07-21T02:31:16.420Z,82.06
2018-07-21T02:33:47.703Z,81.43
2018-07-21T02:36:19.160Z,82.39
2018-07-21T02:38:50.461Z,82.74
2018-07-21T02:41:21.945Z,84.11
2018-07-21T02:43:53.421Z,84.55
2018-07-21T02:46:24.764Z,84.91
2018-07-21T02:48:56.090Z,85.39
2018-07-21T02:51:27.527Z,85.00
2018-07-21T02:53:58.828Z,86.00
2018-07-21T02:56:30.050Z,86.39
2018-07-21T02:59:01.408Z,86.47
2018-07-21T03:01:32.932Z,87.46
2018-07-21T03:04:03.827Z,85.68
2018-07-21T03:06:35.041Z,86.20
2018-07-21T03:09:11.259Z,87.33
2018-07-21T03:11:43.018Z,90.82
2018-07-21T03:14:14.642Z,92.22
2018-07-21T03:16:46.039Z,93.26
2018-07-21T03:19:17.405Z,95.46
2018-07-21T03:21:48.614Z,95.41
2018-07-21T03:24:19.881Z,96.36
2018-07-21T03:26:51.154Z,95.86
2018-07-21T03:29:22.541Z,96.13
2018-07-21T03:31:53.792Z,97.12
2018-07-21T03:34:25.343Z,97.78
2018-07-21T03:36:56.583Z,99.62
2018-07-21T03:39:28.396Z,99.48
2018-07-21T03:41:59.167Z,100.00
2018-07-21T03:44:30.397Z,100.00
2018-07-21T03:47:01.763Z,100.00
2018-07-21T03:49:33.116Z,100.00
2018-07-21T03:52:04.977Z,100.00
2018-07-21T03:54:36.413Z,100.00
2018-07-21T03:57:07.910Z,100.00
2018-07-21T03:59:39.126Z,100.00
2018-07-21T04:02:10.572Z,100.00
2018-07-21T04:04:41.756Z,100.00
2018-07-21T04:07:12.946Z,100.00
2018-07-21T04:09:44.547Z,100.00
2018-07-21T04:12:16.088Z,100.00
2018-07-21T04:14:47.530Z,100.00
2018-07-21T04:17:26.672Z,100.00
2018-07-21T04:19:58.569Z,100.00
2018-07-21T04:22:30.554Z,100.00
2018-07-21T04:25:01.859Z,100.00
2018-07-21T04:27:33.295Z,100.00
2018-07-21T04:30:04.774Z,100.00
2018-07-21T04:32:37.025Z,100.00
2018-07-21T04:35:09.506Z,99.95
2018-07-21T04:37:41.831Z,100.00
2018-07-21T04:40:15.712Z,99.92
2018-07-21T04:42:46.845Z,99.24
2018-07-21T04:45:19.227Z,98.40
2018-07-21T04:47:50.514Z,97.06
2018-07-21T04:50:22.058Z,97.90
2018-07-21T04:52:54.424Z,98.01
2018-07-21T04:55:26.241Z,97.50
2018-07-21T04:57:57.605Z,98.42
2018-07-21T05:00:29.293Z,97.13
2018-07-21T05:03:00.746Z,98.13
2018-07-21T05:05:32.043Z,98.23
2018-07-21T05:08:03.988Z,99.22
2018-07-21T05:10:35.349Z,98.07
2018-07-21T05:13:06.668Z,98.09
2018-07-21T05:15:46.769Z,97.71
2018-07-21T05:18:18.117Z,95.58
2018-07-21T05:20:50.482Z,96.37
2018-07-21T05:23:21.758Z,97.42
2018-07-21T05:25:53.011Z,99.15
2018-07-21T05:28:24.264Z,100.00
2018-07-21T05:30:55.611Z,100.00
2018-07-21T05:33:27.192Z,100.00
2018-07-21T05:35:58.578Z,100.00
2018-07-21T05:38:29.800Z,100.00
2018-07-21T05:41:01.165Z,100.00
2018-07-21T05:43:32.803Z,100.00
2018-07-21T05:46:04.318Z,100.00
2018-07-21T05:48:35.788Z,100.00
2018-07-21T05:51:07.803Z,100.00
2018-07-21T05:53:39.154Z,100.00
2018-07-21T05:56:10.876Z,100.00
2018-07-21T05:58:42.051Z,100.00
2018-07-21T06:01:15.260Z,100.00
2018-07-21T06:03:46.591Z,100.00
2018-07-21T06:06:18.013Z,100.00
2018-07-21T06:08:49.339Z,100.00
2018-07-21T06:11:20.747Z,98.40
2018-07-21T06:13:52.109Z,98.92
2018-07-21T06:16:23.493Z,95.27
2018-07-21T06:18:54.725Z,95.27
2018-07-21T06:21:26.881Z,95.24
2018-07-21T06:23:58.197Z,95.57
2018-07-21T06:26:29.586Z,93.82
2018-07-21T06:29:00.862Z,91.38
2018-07-21T06:31:32.246Z,92.17
2018-07-21T06:34:08.449Z,94.05
2018-07-21T06:36:40.910Z,90.79
2018-07-21T06:39:13.777Z,87.85
2018-07-21T06:41:45.166Z,90.91
2018-07-21T06:44:17.352Z,92.75
2018-07-21T06:46:48.886Z,90.21
2018-07-21T06:49:20.154Z,88.83
2018-07-21T06:51:51.633Z,85.42
2018-07-21T06:54:23.098Z,83.81
2018-07-21T06:56:54.611Z,83.54
2018-07-21T06:59:26.369Z,82.49
2018-07-21T07:01:58.088Z,80.88
2018-07-21T07:04:29.756Z,79.17
2018-07-21T07:07:01.134Z,77.95
2018-07-21T07:09:32.516Z,78.01
2018-07-21T07:12:03.892Z,76.96
2018-07-21T07:14:35.152Z,73.23
2018-07-21T07:17:07.459Z,73.47
2018-07-21T07:19:38.990Z,74.33
2018-07-21T07:22:10.383Z,73.08
2018-07-21T07:24:42.430Z,72.84
2018-07-21T07:27:14.065Z,67.46
2018-07-21T07:29:46.060Z,65.87
2018-07-21T07:32:18.604Z,67.50
2018-07-21T07:34:51.782Z,68.08
2018-07-21T07:37:27.157Z,69.09
2018-07-21T07:39:58.884Z,72.23
2018-07-21T07:42:32.211Z,72.64
2018-07-21T07:45:03.610Z,72.68
2018-07-21T07:47:35.000Z,74.01
2018-07-21T07:50:06.361Z,74.84
2018-07-21T07:52:37.879Z,75.07
2018-07-21T07:55:09.365Z,77.11
2018-07-21T07:57:40.816Z,77.30
2018-07-21T08:00:15.578Z,75.58
2018-07-21T08:02:46.402Z,76.53
2018-07-21T08:05:19.602Z,75.85
2018-07-21T08:07:50.994Z,75.45
2018-07-21T08:10:22.419Z,74.03
2018-07-21T08:12:54.504Z,72.94
2018-07-21T08:15:25.859Z,67.57
2018-07-21T08:17:57.206Z,67.08
2018-07-21T08:20:28.717Z,66.90
2018-07-21T08:23:00.065Z,68.84
2018-07-21T08:25:31.794Z,69.81
2018-07-21T08:28:03.081Z,67.02
2018-07-21T08:30:34.368Z,69.77
2018-07-21T08:33:05.710Z,69.33
2018-07-21T08:35:37.066Z,69.60
2018-07-21T08:38:08.623Z,66.64
2018-07-21T08:40:39.934Z,65.19
2018-07-21T08:43:12.549Z,66.82
2018-07-21T08:45:44.202Z,66.49
2018-07-21T08:48:15.566Z,65.43
2018-07-21T08:54:54.461Z,66.61
2018-07-21T08:57:28.274Z,66.24
2018-07-21T08:59:59.667Z,66.93
2018-07-21T09:02:32.307Z,64.66
2018-07-21T09:05:04.254Z,65.61
2018-07-21T09:48:00.912Z,64.06
2018-07-21T09:51:28.733Z,63.03
2018-07-21T09:54:00.067Z,60.02
2018-07-21T09:56:29.995Z,59.76
2018-07-21T09:58:59.912Z,54.51
2018-07-21T10:01:32.491Z,53.84
2018-07-21T10:04:03.488Z,54.82
2018-07-21T10:06:33.522Z,55.56
2018-07-21T10:09:03.726Z,56.83
2018-07-21T10:11:33.807Z,58.48
2018-07-21T10:14:06.719Z,59.20
2018-07-21T10:16:37.192Z,61.16
2018-07-21T10:19:07.381Z,60.20
2018-07-21T10:21:38.688Z,58.14
2018-07-21T10:24:16.084Z,57.50
2018-07-21T10:26:53.446Z,59.22
2018-07-21T10:29:24.528Z,60.39
2018-07-21T10:31:54.541Z,59.97
2018-07-21T10:34:24.584Z,59.14
2018-07-21T10:36:54.728Z,58.79
2018-07-21T10:39:27.340Z,59.81
2018-07-21T10:41:58.654Z,60.94
2018-07-21T10:44:28.655Z,61.10
2018-07-21T10:46:59.751Z,58.07
2018-07-21T10:49:29.708Z,58.55
2018-07-21T10:52:00.622Z,57.38
2018-07-21T10:54:30.555Z,56.45
2018-07-21T10:57:00.519Z,58.44
2018-07-21T10:59:30.554Z,57.30
2018-07-21T11:02:01.948Z,57.03
2018-07-21T11:04:32.909Z,56.71
2018-07-21T11:07:03.437Z,56.43
2018-07-21T11:09:33.413Z,54.92
2018-07-21T11:12:04.760Z,54.40
2018-07-21T11:14:35.832Z,55.58
2018-07-21T11:17:05.812Z,54.11
2018-07-21T11:19:35.813Z,50.30
2018-07-21T11:22:07.582Z,50.44
2018-07-21T11:24:37.397Z,47.38
2018-07-21T11:27:09.058Z,43.87
2018-07-21T11:29:40.059Z,40.68
2018-07-21T11:32:11.509Z,40.77
2018-07-21T11:34:41.610Z,38.72
2018-07-21T11:37:12.923Z,39.15
2018-07-21T11:39:42.738Z,40.23
2018-07-21T11:42:14.689Z,40.93
2018-07-21T11:44:46.084Z,38.95
2018-07-21T11:47:16.102Z,39.42
2018-07-21T11:49:46.203Z,40.01
2018-07-21T11:52:17.464Z,39.31
2018-07-21T11:54:48.698Z,40.39
2018-07-21T11:57:18.719Z,40.04
2018-07-21T11:59:48.614Z,41.49
2018-07-21T12:02:21.025Z,40.09
2018-07-21T12:04:50.805Z,40.64
2018-07-21T12:07:20.716Z,40.10
2018-07-21T12:09:51.051Z,40.53
2018-07-21T12:12:21.062Z,41.01
2018-07-21T12:14:53.283Z,41.50
2018-07-21T12:17:26.360Z,42.02
2018-07-21T12:19:59.382Z,39.91
2018-07-21T12:22:29.423Z,41.44
2018-07-21T12:24:59.504Z,41.51
2018-07-21T12:27:32.040Z,40.27
2018-07-21T12:30:04.978Z,40.94
2018-07-21T12:32:35.017Z,41.20
2018-07-21T12:35:07.465Z,39.82
2018-07-21T12:37:37.577Z,37.80
2018-07-21T12:40:08.869Z,39.21
2018-07-21T12:42:40.292Z,38.62
2018-07-21T12:45:14.381Z,36.76
2018-07-21T12:47:44.218Z,37.47
2018-07-21T12:50:24.038Z,38.26
2018-07-21T12:52:56.508Z,37.91
2018-07-21T12:55:26.986Z,36.41
2018-07-21T12:57:56.885Z,37.21
2018-07-21T13:00:29.136Z,36.36
2018-07-21T13:02:59.298Z,36.99
2018-07-21T13:05:30.019Z,36.19
2018-07-21T13:08:00.024Z,37.41
2018-07-21T13:10:31.749Z,37.58
2018-07-21T13:13:02.987Z,37.35
2018-07-21T13:15:33.744Z,38.05
2018-07-21T13:18:07.272Z,38.98
2018-07-21T13:20:38.612Z,37.71
2018-07-21T13:23:08.964Z,38.26
2018-07-21T13:25:38.847Z,39.61
2018-07-21T13:28:10.175Z,37.44
2018-07-21T13:30:41.512Z,39.07
2018-07-21T13:33:11.832Z,38.89
2018-07-21T13:35:43.004Z,39.20
2018-07-21T13:38:17.493Z,38.10
2018-07-21T13:40:47.577Z,37.48
2018-07-21T13:43:18.707Z,39.65
2018-07-21T13:45:49.714Z,39.44
2018-07-21T13:48:20.694Z,40.28
2018-07-21T13:50:54.193Z,41.42
2018-07-21T13:53:25.324Z,39.81
2018-07-21T13:55:55.243Z,38.99
2018-07-21T13:58:25.144Z,39.85
2018-07-21T14:00:56.592Z,39.88
2018-07-21T14:03:27.853Z,38.21
2018-07-21T14:05:57.722Z,36.44
2018-07-21T14:08:27.716Z,38.32
2018-07-21T14:10:58.996Z,37.38
2018-07-21T14:13:29.978Z,35.78
2018-07-21T14:16:00.292Z,34.60
2018-07-21T14:18:31.305Z,35.02
2018-07-21T14:21:02.672Z,34.27
2018-07-21T14:23:33.861Z,34.24
2018-07-21T14:26:03.769Z,33.45
2018-07-21T14:28:33.697Z,34.20
2018-07-21T14:31:06.975Z,32.33
2018-07-21T14:33:37.545Z,33.93
2018-07-21T14:36:08.214Z,34.59
2018-07-21T14:38:40.003Z,34.51
2018-07-21T14:41:11.594Z,33.49
2018-07-21T14:43:41.547Z,34.74
2018-07-21T14:46:13.468Z,36.09
2018-07-21T14:48:44.879Z,35.57
2018-07-21T14:51:14.920Z,37.50
2018-07-21T14:53:46.107Z,36.45
2018-07-21T14:56:16.241Z,37.37
2018-07-21T14:58:48.304Z,36.64
2018-07-21T15:01:19.563Z,36.83
2018-07-21T15:03:50.895Z,36.39
2018-07-21T15:06:22.261Z,37.26
2018-07-21T15:08:52.201Z,37.09
2018-07-21T15:11:22.444Z,37.82
2018-07-21T15:13:52.363Z,37.74
2018-07-21T15:16:25.092Z,39.00
2018-07-21T15:18:55.392Z,38.85
2018-07-21T15:21:25.285Z,38.94
2018-07-21T15:23:56.699Z,38.94
2018-07-21T15:26:28.148Z,38.68
2018-07-21T15:28:58.124Z,38.42
2018-07-21T15:31:28.017Z,39.74
2018-07-21T15:33:58.085Z,39.74
2018-07-21T15:36:29.083Z,39.86
2018-07-21T15:39:00.345Z,39.81
2018-07-21T15:41:31.755Z,38.72
2018-07-21T15:44:01.920Z,39.56
2018-07-21T15:46:33.132Z,39.34
2018-07-21T15:49:03.785Z,39.46
2018-07-21T15:51:35.760Z,39.35
2018-07-21T15:54:06.332Z,39.74
2018-07-21T15:56:36.120Z,39.80
2018-07-21T15:59:06.123Z,40.31
2018-07-21T16:01:37.061Z,40.51
2018-07-21T16:04:08.015Z,40.43
2018-07-21T16:06:40.130Z,39.94
2018-07-21T16:09:12.433Z,39.90
2018-07-21T16:11:43.551Z,40.39
2018-07-21T16:14:13.611Z,40.89
2018-07-21T16:16:43.487Z,40.18
2018-07-21T16:19:13.424Z,39.98
2018-07-21T16:21:44.360Z,40.14
2018-07-21T16:24:15.408Z,40.92
2018-07-21T16:26:45.280Z,40.43
2018-07-21T16:29:15.187Z,41.67
2018-07-21T16:31:46.452Z,42.06
2018-07-21T16:34:19.340Z,41.65
2018-07-21T16:36:49.239Z,41.69
2018-07-21T16:39:19.144Z,42.06
2018-07-21T16:41:50.061Z,42.03
2018-07-21T16:44:21.066Z,42.48
2018-07-21T16:46:52.519Z,42.31
2018-07-21T16:49:23.978Z,42.99
2018-07-21T16:51:53.971Z,43.65
2018-07-21T16:54:26.272Z,43.90
2018-07-21T16:57:05.016Z,43.86
2018-07-21T16:59:36.720Z,42.27
2018-07-21T17:02:06.999Z,42.54
2018-07-21T17:04:37.010Z,41.81
2018-07-21T17:07:08.094Z,42.45
2018-07-21T17:09:39.812Z,41.44
2018-07-21T17:12:10.170Z,40.91
2018-07-21T17:14:41.170Z,41.98
2018-07-21T17:17:11.628Z,41.59
2018-07-21T17:19:42.200Z,41.52
2018-07-21T17:22:12.449Z,42.05
2018-07-21T17:24:42.340Z,42.17
2018-07-21T17:27:13.481Z,41.82
2018-07-21T17:29:44.917Z,42.35
2018-07-21T17:32:15.348Z,42.04
2018-07-21T17:34:45.228Z,43.02
2018-07-21T17:37:15.134Z,42.38
2018-07-21T17:39:46.606Z,43.04
2018-07-21T17:42:17.351Z,42.71
2018-07-21T17:44:47.195Z,42.95
2018-07-21T17:47:16.932Z,43.13
2018-07-21T17:49:46.972Z,43.11
2018-07-21T17:52:18.013Z,42.41
2018-07-21T17:54:48.960Z,41.99
2018-07-21T17:57:19.365Z,43.40
2018-07-21T17:59:49.253Z,44.13
2018-07-21T18:02:20.099Z,43.33
2018-07-21T18:04:51.572Z,42.89
2018-07-21T18:07:21.469Z,43.61
2018-07-21T18:09:51.296Z,43.94
2018-07-21T18:12:21.387Z,43.37
2018-07-21T18:14:51.349Z,43.63
2018-07-21T18:17:23.327Z,44.25
2018-07-21T18:19:54.032Z,44.38
2018-07-21T18:22:23.957Z,44.83
2018-07-21T18:24:54.019Z,45.58
2018-07-21T18:27:23.914Z,46.10
2018-07-21T18:29:56.183Z,46.35
2018-07-21T18:32:26.101Z,46.94
2018-07-21T18:34:56.110Z,46.86
2018-07-21T18:37:26.203Z,46.25
2018-07-21T18:39:58.031Z,46.18
2018-07-21T18:42:28.827Z,46.01
2018-07-21T18:44:58.873Z,47.02
2018-07-21T18:47:29.083Z,47.51
2018-07-21T18:50:01.406Z,48.11
2018-07-21T18:52:31.525Z,47.67
2018-07-21T18:55:01.448Z,48.01
2018-07-21T18:57:32.246Z,48.69
2018-07-21T19:00:09.418Z,50.30
2018-07-21T19:02:52.984Z,51.31
2018-07-21T19:05:26.641Z,52.50
2018-07-21T19:07:59.105Z,53.56
2018-07-21T19:10:29.783Z,54.79
2018-07-21T19:13:01.553Z,55.84
2018-07-21T19:15:36.903Z,56.35
2018-07-21T19:18:06.956Z,57.10
2018-07-21T19:20:42.175Z,56.61
2018-07-21T19:23:12.648Z,56.85
2018-07-21T19:25:47.646Z,56.78
2018-07-21T19:28:17.638Z,56.96
2018-07-21T19:30:47.515Z,58.60
2018-07-21T19:33:17.735Z,58.92
2018-07-21T19:35:47.693Z,58.33
2018-07-21T19:38:17.720Z,58.80
2018-07-21T19:40:48.731Z,59.15
2018-07-21T19:43:19.762Z,59.88
2018-07-21T19:45:49.645Z,60.79
2018-07-21T19:48:19.457Z,60.89
2018-07-21T19:50:49.484Z,61.11
2018-07-21T19:53:20.603Z,60.37
2018-07-21T19:55:51.631Z,60.45
2018-07-21T19:58:21.738Z,61.29
2018-07-21T20:00:52.975Z,62.04
2018-07-21T20:03:24.652Z,63.00
2018-07-21T20:05:55.915Z,62.74
2018-07-21T20:08:29.781Z,63.83
2018-07-21T20:11:00.915Z,64.72
2018-07-21T20:13:31.057Z,65.01
2018-07-21T20:16:02.440Z,64.90
2018-07-21T20:18:33.504Z,65.81
2018-07-21T20:21:03.820Z,66.11
2018-07-21T20:23:37.431Z,66.26
2018-07-21T20:26:10.961Z,65.69
2018-07-21T20:28:41.797Z,65.14
2018-07-21T20:31:13.422Z,66.48
2018-07-21T20:33:45.165Z,67.24
2018-07-21T20:36:15.719Z,67.09
2018-07-21T20:41:57.363Z,67.68
2018-07-21T20:44:31.277Z,68.44
2018-07-21T20:47:01.812Z,68.57
2018-07-21T20:49:32.574Z,68.47
2018-07-21T20:52:02.884Z,68.45
2018-07-21T20:54:39.663Z,68.57
2018-07-21T20:57:15.090Z,68.85
2018-07-21T20:59:46.671Z,69.09
2018-07-21T21:02:18.319Z,69.66
2018-07-21T21:04:51.502Z,71.15
2018-07-21T21:07:21.454Z,71.19
2018-07-21T21:09:51.337Z,70.49
2018-07-21T21:12:21.302Z,69.62
2018-07-21T21:14:52.806Z,71.46
2018-07-21T21:17:24.750Z,72.33
2018-07-21T21:19:54.562Z,75.55
2018-07-21T21:22:26.278Z,76.36
2018-07-21T21:24:57.493Z,74.04
2018-07-21T21:27:27.420Z,73.35
2018-07-21T21:29:57.195Z,73.56
2018-07-21T21:32:28.169Z,71.83
2018-07-21T21:34:59.779Z,70.30
2018-07-21T21:37:29.806Z,70.08
2018-07-21T21:39:59.732Z,71.84
2018-07-21T21:42:32.951Z,73.05
2018-07-21T21:45:05.472Z,72.63
2018-07-21T21:47:38.372Z,73.17
2018-07-21T21:50:12.734Z,75.20
2018-07-21T21:52:45.060Z,75.53
2018-07-21T21:55:17.857Z,74.75
2018-07-21T21:57:48.092Z,74.29
2018-07-21T22:00:19.786Z,74.37
2018-07-21T22:02:51.463Z,74.97
2018-07-21T22:05:24.078Z,75.02
2018-07-21T22:07:56.179Z,75.54
2018-07-21T22:10:27.363Z,77.01
2018-07-21T22:12:57.336Z,75.40
2018-07-21T22:15:27.368Z,80.03
2018-07-21T22:17:58.606Z,79.19
2018-07-21T22:20:29.625Z,77.45
2018-07-21T22:22:59.469Z,77.32
2018-07-21T22:25:29.548Z,76.72
2018-07-21T22:28:00.577Z,78.67
2018-07-21T22:30:31.664Z,79.85
2018-07-21T22:33:01.587Z,82.04
2018-07-21T22:35:32.100Z,80.12
2018-07-21T22:38:03.797Z,78.78
2018-07-21T22:40:34.994Z,78.08
2018-07-21T22:43:05.996Z,77.86
2018-07-21T22:45:36.047Z,77.71
2018-07-21T22:48:07.420Z,77.08
2018-07-21T22:50:39.005Z,77.48
2018-07-21T22:53:09.140Z,76.71
2018-07-21T22:55:39.025Z,77.19
2018-07-21T22:58:09.736Z,76.77
2018-07-21T23:00:41.069Z,77.45
2018-07-21T23:03:12.052Z,78.07
2018-07-21T23:05:42.066Z,77.26
2018-07-21T23:08:12.316Z,77.81
2018-07-21T23:10:43.760Z,78.86
2018-07-21T23:13:15.008Z,78.67
2018-07-21T23:15:45.067Z,77.20
2018-07-21T23:18:15.374Z,79.61
2018-07-21T23:20:45.609Z,80.44
2018-07-21T23:23:18.037Z,80.64
2018-07-21T23:25:49.388Z,79.43
2018-07-21T23:28:19.262Z,79.50
2018-07-21T23:30:51.953Z,77.21
2018-07-21T23:33:23.260Z,76.93
2018-07-21T23:35:54.096Z,78.42
2018-07-21T23:38:23.951Z,77.86
2018-07-21T23:40:53.863Z,78.77
2018-07-21T23:43:26.364Z,80.32
2018-07-21T23:45:56.996Z,80.25
2018-07-21T23:48:27.033Z,80.66
2018-07-21T23:50:57.755Z,80.67
2018-07-21T23:53:28.771Z,80.59
2018-07-21T23:55:59.742Z,81.42
2018-07-21T23:58:29.696Z,81.19
